createdAt,value
2023-05-16T00:00:00.888Z,94695.00
2023-05-16T00:01:00.903Z,94691.00
2023-05-16T00:02:01.036Z,94693.00
2023-05-16T00:03:01.043Z,94691.00
2023-05-16T00:04:01.050Z,94691.00
2023-05-16T00:05:00.955Z,94689.00
2023-05-16T00:06:00.988Z,94689.00
2023-05-16T00:07:00.978Z,94689.00
2023-05-16T00:08:01.063Z,94687.00
2023-05-16T00:09:01.035Z,94687.00
2023-05-16T00:10:01.054Z,94684.00
2023-05-16T00:11:01.117Z,94682.00
2023-05-16T00:12:01.088Z,94682.00
2023-05-16T00:13:01.120Z,94682.00
2023-05-16T00:14:01.120Z,94680.00
2023-05-16T00:15:01.140Z,94682.00
2023-05-16T00:16:01.150Z,94680.00
2023-05-16T00:17:01.222Z,94680.00
2023-05-16T00:18:01.308Z,94680.00
2023-05-16T00:19:01.476Z,94678.00
2023-05-16T00:20:01.221Z,94676.00
2023-05-16T00:21:01.236Z,94674.00
2023-05-16T00:22:01.258Z,94674.00
2023-05-16T00:23:01.481Z,94674.00
2023-05-16T00:24:01.310Z,94674.00
2023-05-16T00:25:01.318Z,94672.00
2023-05-16T00:26:01.350Z,94670.00
2023-05-16T00:27:01.351Z,94670.00
2023-05-16T00:28:01.346Z,94668.00
2023-05-16T00:29:01.372Z,94668.00
2023-05-16T00:30:01.363Z,94666.00
2023-05-16T00:31:01.376Z,94664.00
2023-05-16T00:32:01.460Z,94664.00
2023-05-16T00:33:01.483Z,94664.00
2023-05-16T00:34:01.501Z,94662.00
2023-05-16T00:35:01.440Z,94662.00
2023-05-16T00:36:01.475Z,94660.00
2023-05-16T00:37:01.471Z,94662.00
2023-05-16T00:38:01.506Z,94662.00
2023-05-16T00:39:01.527Z,94664.00
2023-05-16T00:40:01.535Z,94662.00
2023-05-16T00:41:01.557Z,94664.00
2023-05-16T00:42:01.578Z,94664.00
2023-05-16T00:43:01.577Z,94662.00
2023-05-16T00:44:01.619Z,94664.00
2023-05-16T00:45:01.602Z,94660.00
2023-05-16T00:46:01.662Z,94660.00
2023-05-16T00:47:01.671Z,94662.00
2023-05-16T00:48:01.795Z,94662.00
2023-05-16T00:49:01.700Z,94662.00
2023-05-16T00:50:01.726Z,94664.00
2023-05-16T00:51:01.733Z,94662.00
2023-05-16T00:52:01.757Z,94662.00
2023-05-16T00:53:01.800Z,94664.00
2023-05-16T00:54:01.805Z,94662.00
2023-05-16T00:55:01.798Z,94662.00
2023-05-16T00:56:01.851Z,94664.00
2023-05-16T00:57:01.884Z,94664.00
2023-05-16T00:58:01.936Z,94668.00
2023-05-16T00:59:01.919Z,94666.00
2023-05-16T01:00:01.961Z,94666.00
2023-05-16T01:01:01.944Z,94664.00
2023-05-16T01:02:02.244Z,94660.00
2023-05-16T01:03:02.058Z,94658.00
2023-05-16T01:04:02.119Z,94656.00
2023-05-16T01:05:01.980Z,94656.00
2023-05-16T01:06:02.005Z,94654.00
2023-05-16T01:07:02.076Z,94654.00
2023-05-16T01:08:02.086Z,94650.00
2023-05-16T01:09:02.042Z,94652.00
2023-05-16T01:10:02.131Z,94652.00
2023-05-16T01:11:02.116Z,94652.00
2023-05-16T01:12:02.238Z,94652.00
2023-05-16T01:13:02.184Z,94650.00
2023-05-16T01:14:02.153Z,94652.00
2023-05-16T01:15:02.184Z,94654.00
2023-05-16T01:16:02.222Z,94650.00
2023-05-16T01:17:02.209Z,94654.00
2023-05-16T01:18:02.350Z,94654.00
2023-05-16T01:19:02.272Z,94650.00
2023-05-16T01:20:02.291Z,94650.00
2023-05-16T01:21:02.276Z,94648.00
2023-05-16T01:22:02.323Z,94650.00
2023-05-16T01:23:02.328Z,94650.00
2023-05-16T01:24:02.357Z,94652.00
2023-05-16T01:25:02.384Z,94650.00
2023-05-16T01:26:02.411Z,94652.00
2023-05-16T01:27:02.383Z,94652.00
2023-05-16T01:28:02.421Z,94652.00
2023-05-16T01:29:02.460Z,94652.00
2023-05-16T01:30:02.453Z,94652.00
2023-05-16T01:31:02.577Z,94650.00
2023-05-16T01:32:02.661Z,94652.00
2023-05-16T01:33:02.518Z,94650.00
2023-05-16T01:34:02.544Z,94652.00
2023-05-16T01:35:02.576Z,94650.00
2023-05-16T01:36:02.569Z,94650.00
2023-05-16T01:37:02.599Z,94650.00
2023-05-16T01:38:02.622Z,94648.00
2023-05-16T01:39:02.633Z,94648.00
2023-05-16T01:40:02.657Z,94646.00
2023-05-16T01:41:02.653Z,94646.00
2023-05-16T01:42:02.677Z,94646.00
2023-05-16T01:43:02.687Z,94646.00
2023-05-16T01:44:02.700Z,94650.00
2023-05-16T01:45:02.716Z,94650.00
2023-05-16T01:46:02.768Z,94652.00
2023-05-16T01:47:02.882Z,94650.00
2023-05-16T01:48:02.834Z,94650.00
2023-05-16T01:49:02.809Z,94646.00
2023-05-16T01:50:02.844Z,94648.00
2023-05-16T01:51:02.854Z,94648.00
2023-05-16T01:52:02.877Z,94644.00
2023-05-16T01:53:02.910Z,94642.00
2023-05-16T01:54:02.909Z,94640.00
2023-05-16T01:55:02.937Z,94638.00
2023-05-16T01:56:02.929Z,94640.00
2023-05-16T01:57:02.987Z,94638.00
2023-05-16T01:58:03.004Z,94631.00
2023-05-16T01:59:02.985Z,94631.00
2023-05-16T02:00:03.010Z,94631.00
2023-05-16T02:01:03.082Z,94638.00
2023-05-16T02:02:03.048Z,94631.00
2023-05-16T02:03:03.155Z,94638.00
2023-05-16T02:04:03.180Z,94638.00
2023-05-16T02:05:03.114Z,94638.00
2023-05-16T02:06:03.106Z,94640.00
2023-05-16T02:07:03.126Z,94640.00
2023-05-16T02:08:03.166Z,94638.00
2023-05-16T02:09:03.136Z,94631.00
2023-05-16T02:10:03.145Z,94631.00
2023-05-16T02:11:03.202Z,94629.00
2023-05-16T02:12:03.195Z,94629.00
2023-05-16T02:13:03.208Z,94629.00
2023-05-16T02:14:03.259Z,94627.00
2023-05-16T02:15:03.268Z,94627.00
2023-05-16T02:16:03.269Z,94627.00
2023-05-16T02:17:03.380Z,94629.00
2023-05-16T02:18:03.384Z,94631.00
2023-05-16T02:19:03.366Z,94627.00
2023-05-16T02:20:03.335Z,94629.00
2023-05-16T02:21:03.340Z,94629.00
2023-05-16T02:22:03.355Z,94625.00
2023-05-16T02:23:03.409Z,94625.00
2023-05-16T02:24:03.435Z,94621.00
2023-05-16T02:25:03.428Z,94619.00
2023-05-16T02:26:03.434Z,94621.00
2023-05-16T02:27:03.443Z,94617.00
2023-05-16T02:28:03.516Z,94619.00
2023-05-16T02:29:03.513Z,94617.00
2023-05-16T02:30:03.546Z,94619.00
2023-05-16T02:31:03.579Z,94617.00
2023-05-16T02:32:03.649Z,94615.00
2023-05-16T02:33:03.646Z,94613.00
2023-05-16T02:34:03.616Z,94613.00
2023-05-16T02:35:03.625Z,94611.00
2023-05-16T02:36:03.658Z,94611.00
2023-05-16T02:37:03.697Z,94611.00
2023-05-16T02:38:03.708Z,94609.00
2023-05-16T02:39:03.742Z,94611.00
2023-05-16T02:40:03.735Z,94609.00
2023-05-16T02:41:03.757Z,94609.00
2023-05-16T02:42:03.790Z,94609.00
2023-05-16T02:43:03.794Z,94609.00
2023-05-16T02:44:03.868Z,94607.00
2023-05-16T02:45:03.857Z,94609.00
2023-05-16T02:46:03.953Z,94607.00
2023-05-16T02:47:03.906Z,94607.00
2023-05-16T02:48:03.912Z,94607.00
2023-05-16T02:49:03.948Z,94609.00
2023-05-16T02:50:03.961Z,94607.00
2023-05-16T02:51:03.954Z,94605.00
2023-05-16T02:52:04.002Z,94607.00
2023-05-16T02:53:03.993Z,94607.00
2023-05-16T02:54:04.029Z,94605.00
2023-05-16T02:55:21.147Z,94605.00
2023-05-16T02:56:05.075Z,94605.00
2023-05-16T02:57:04.030Z,94605.00
2023-05-16T02:58:04.038Z,94605.00
2023-05-16T02:59:04.043Z,94605.00
2023-05-16T03:00:04.024Z,94603.00
2023-05-16T03:01:04.006Z,94603.00
2023-05-16T03:02:04.177Z,94605.00
2023-05-16T03:03:04.053Z,94605.00
2023-05-16T03:04:04.057Z,94603.00
2023-05-16T03:05:03.973Z,94601.00
2023-05-16T03:06:03.992Z,94601.00
2023-05-16T03:07:03.982Z,94599.00
2023-05-16T03:08:03.930Z,94597.00
2023-05-16T03:09:03.971Z,94597.00
2023-05-16T03:10:03.931Z,94597.00
2023-05-16T03:11:03.906Z,94595.00
2023-05-16T03:12:04.251Z,94593.00
2023-05-16T03:13:03.904Z,94597.00
2023-05-16T03:14:03.885Z,94597.00
2023-05-16T03:15:03.880Z,94601.00
2023-05-16T03:16:03.900Z,94601.00
2023-05-16T03:17:03.861Z,94599.00
2023-05-16T03:18:03.930Z,94601.00
2023-05-16T03:19:03.886Z,94603.00
2023-05-16T03:20:03.888Z,94603.00
2023-05-16T03:21:03.932Z,94599.00
2023-05-16T03:22:04.067Z,94599.00
2023-05-16T03:23:04.014Z,94597.00
2023-05-16T03:24:04.029Z,94597.00
2023-05-16T03:25:04.034Z,94597.00
2023-05-16T03:26:04.031Z,94599.00
2023-05-16T03:27:04.056Z,94599.00
2023-05-16T03:28:04.066Z,94601.00
2023-05-16T03:29:04.093Z,94599.00
2023-05-16T03:30:04.110Z,94599.00
2023-05-16T03:31:04.160Z,94597.00
2023-05-16T03:32:04.245Z,94599.00
2023-05-16T03:33:04.252Z,94599.00
2023-05-16T03:34:04.175Z,94599.00
2023-05-16T03:35:04.206Z,94601.00
2023-05-16T03:36:04.229Z,94597.00
2023-05-16T03:37:04.258Z,94597.00
2023-05-16T03:38:04.276Z,94595.00
2023-05-16T03:39:04.297Z,94599.00
2023-05-16T03:40:04.297Z,94595.00
2023-05-16T03:41:04.348Z,94595.00
2023-05-16T03:42:04.354Z,94593.00
2023-05-16T03:43:04.392Z,94597.00
2023-05-16T03:44:04.404Z,94597.00
2023-05-16T03:45:04.409Z,94597.00
2023-05-16T03:46:04.505Z,94597.00
2023-05-16T03:47:04.447Z,94595.00
2023-05-16T03:48:04.526Z,94593.00
2023-05-16T03:49:04.508Z,94593.00
2023-05-16T03:50:04.607Z,94595.00
2023-05-16T03:51:04.553Z,94595.00
2023-05-16T03:52:04.556Z,94593.00
2023-05-16T03:53:04.591Z,94595.00
2023-05-16T03:54:04.606Z,94595.00
2023-05-16T03:55:04.626Z,94597.00
2023-05-16T03:56:04.635Z,94597.00
2023-05-16T03:57:04.684Z,94595.00
2023-05-16T03:58:04.680Z,94597.00
2023-05-16T03:59:04.742Z,94599.00
2023-05-16T04:00:04.737Z,94597.00
2023-05-16T04:01:04.800Z,94597.00
2023-05-16T04:02:04.787Z,94597.00
2023-05-16T04:03:04.858Z,94593.00
2023-05-16T04:04:04.845Z,94597.00
2023-05-16T04:05:04.874Z,94597.00
2023-05-16T04:06:04.928Z,94595.00
2023-05-16T04:07:04.896Z,94597.00
2023-05-16T04:08:04.921Z,94595.00
2023-05-16T04:09:05.036Z,94591.00
2023-05-16T04:10:05.015Z,94595.00
2023-05-16T04:11:04.962Z,94597.00
2023-05-16T04:12:04.997Z,94597.00
2023-05-16T04:13:05.018Z,94595.00
2023-05-16T04:14:05.115Z,94593.00
2023-05-16T04:15:05.070Z,94593.00
2023-05-16T04:16:05.846Z,94595.00
2023-05-16T04:17:05.207Z,94595.00
2023-05-16T04:18:05.270Z,94595.00
2023-05-16T04:19:05.245Z,94593.00
2023-05-16T04:20:05.192Z,94593.00
2023-05-16T04:21:05.225Z,94595.00
2023-05-16T04:22:05.214Z,94593.00
2023-05-16T04:23:05.217Z,94595.00
2023-05-16T04:24:05.261Z,94595.00
2023-05-16T04:25:05.257Z,94595.00
2023-05-16T04:26:05.296Z,94595.00
2023-05-16T04:27:05.357Z,94591.00
2023-05-16T04:28:05.358Z,94593.00
2023-05-16T04:29:05.363Z,94591.00
2023-05-16T04:30:05.386Z,94591.00
2023-05-16T04:31:05.455Z,94589.00
2023-05-16T04:32:05.502Z,94589.00
2023-05-16T04:33:05.532Z,94589.00
2023-05-16T04:34:05.468Z,94587.00
2023-05-16T04:35:05.496Z,94591.00
2023-05-16T04:36:05.504Z,94589.00
2023-05-16T04:37:05.493Z,94591.00
2023-05-16T04:38:05.542Z,94593.00
2023-05-16T04:39:05.543Z,94593.00
2023-05-16T04:40:05.571Z,94591.00
2023-05-16T04:41:05.577Z,94593.00
2023-05-16T04:42:05.600Z,94591.00
2023-05-16T04:43:05.607Z,94593.00
2023-05-16T04:44:05.637Z,94593.00
2023-05-16T04:45:05.655Z,94595.00
2023-05-16T04:46:05.691Z,94593.00
2023-05-16T04:47:05.706Z,94593.00
2023-05-16T04:48:05.730Z,94593.00
2023-05-16T04:49:05.700Z,94595.00
2023-05-16T04:50:05.740Z,94593.00
2023-05-16T04:51:05.779Z,94595.00
2023-05-16T04:52:05.804Z,94593.00
2023-05-16T04:53:05.819Z,94597.00
2023-05-16T04:54:05.896Z,94597.00
2023-05-16T04:55:05.836Z,94595.00
2023-05-16T04:56:05.835Z,94593.00
2023-05-16T04:57:05.869Z,94597.00
2023-05-16T04:58:05.861Z,94599.00
2023-05-16T04:59:05.889Z,94599.00
2023-05-16T05:00:05.891Z,94599.00
2023-05-16T05:02:24.861Z,94599.00
2023-05-16T05:03:24.788Z,94603.00
2023-05-16T05:04:24.841Z,94601.00
2023-05-16T05:05:24.804Z,94603.00
2023-05-16T05:06:24.782Z,94601.00
2023-05-16T05:07:24.785Z,94599.00
2023-05-16T05:08:24.756Z,94601.00
2023-05-16T05:09:24.770Z,94601.00
2023-05-16T05:10:24.739Z,94603.00
2023-05-16T05:11:24.737Z,94601.00
2023-05-16T05:12:24.719Z,94605.00
2023-05-16T05:13:24.772Z,94607.00
2023-05-16T05:14:24.725Z,94605.00
2023-05-16T05:15:24.955Z,94603.00
2023-05-16T05:16:24.697Z,94603.00
2023-05-16T05:17:24.789Z,94605.00
2023-05-16T05:18:24.702Z,94601.00
2023-05-16T05:19:24.745Z,94603.00
2023-05-16T05:20:24.679Z,94601.00
2023-05-16T05:21:24.673Z,94603.00
2023-05-16T05:22:24.683Z,94603.00
2023-05-16T05:23:24.654Z,94599.00
2023-05-16T05:24:24.709Z,94605.00
2023-05-16T05:25:24.730Z,94607.00
2023-05-16T05:26:24.645Z,94607.00
2023-05-16T05:27:24.625Z,94605.00
2023-05-16T05:28:24.618Z,94607.00
2023-05-16T05:29:24.613Z,94605.00
2023-05-16T05:30:24.641Z,94605.00
2023-05-16T05:31:24.776Z,94605.00
2023-05-16T05:32:24.669Z,94601.00
2023-05-16T05:33:24.624Z,94601.00
2023-05-16T05:34:25.011Z,94599.00
2023-05-16T05:35:24.778Z,94597.00
2023-05-16T05:36:24.563Z,94595.00
2023-05-16T05:37:24.590Z,94597.00
2023-05-16T05:38:24.564Z,94593.00
2023-05-16T05:39:24.556Z,94597.00
2023-05-16T05:40:24.540Z,94597.00
2023-05-16T05:41:24.542Z,94597.00
2023-05-16T05:42:24.544Z,94597.00
2023-05-16T05:43:24.540Z,94597.00
2023-05-16T05:44:24.978Z,94597.00
2023-05-16T05:45:24.523Z,94597.00
2023-05-16T05:46:31.666Z,94595.00
2023-05-16T05:47:24.532Z,94597.00
2023-05-16T05:48:24.470Z,94595.00
2023-05-16T05:49:24.564Z,94595.00
2023-05-16T05:50:24.488Z,94593.00
2023-05-16T05:51:24.451Z,94593.00
2023-05-16T05:52:24.464Z,94595.00
2023-05-16T05:53:24.515Z,94593.00
2023-05-16T05:54:24.441Z,94593.00
2023-05-16T05:55:24.457Z,94591.00
2023-05-16T05:56:24.403Z,94591.00
2023-05-16T05:57:24.435Z,94591.00
2023-05-16T05:58:24.402Z,94589.00
2023-05-16T05:59:24.476Z,94591.00
2023-05-16T06:00:24.413Z,94587.00
2023-05-16T06:01:24.418Z,94585.00
2023-05-16T06:02:24.424Z,94587.00
2023-05-16T06:03:24.399Z,94585.00
2023-05-16T06:04:24.416Z,94587.00
2023-05-16T06:05:24.436Z,94585.00
2023-05-16T06:06:24.388Z,94587.00
2023-05-16T06:07:24.349Z,94587.00
2023-05-16T06:08:24.338Z,94585.00
2023-05-16T06:09:24.334Z,94585.00
2023-05-16T06:10:24.344Z,94589.00
2023-05-16T06:11:24.338Z,94587.00
2023-05-16T06:12:24.335Z,94591.00
2023-05-16T06:13:24.290Z,94591.00
2023-05-16T06:14:24.314Z,94589.00
2023-05-16T06:15:24.389Z,94591.00
2023-05-16T06:16:24.343Z,94591.00
2023-05-16T06:17:24.359Z,94593.00
2023-05-16T06:18:24.287Z,94595.00
2023-05-16T06:19:24.341Z,94595.00
2023-05-16T06:20:24.256Z,94595.00
2023-05-16T06:21:24.248Z,94591.00
2023-05-16T06:22:24.259Z,94593.00
2023-05-16T06:23:24.268Z,94593.00
2023-05-16T06:24:24.238Z,94593.00
2023-05-16T06:25:24.310Z,94591.00
2023-05-16T06:26:24.318Z,94591.00
2023-05-16T06:27:24.357Z,94593.00
2023-05-16T06:28:24.440Z,94591.00
2023-05-16T06:29:24.489Z,94589.00
2023-05-16T06:30:24.591Z,94587.00
2023-05-16T06:31:24.661Z,94591.00
2023-05-16T06:32:24.637Z,94591.00
2023-05-16T06:33:24.679Z,94591.00
2023-05-16T06:34:24.704Z,94597.00
2023-05-16T06:35:24.781Z,94593.00
2023-05-16T06:36:24.817Z,94595.00
2023-05-16T06:37:24.892Z,94595.00
2023-05-16T06:38:24.919Z,94597.00
2023-05-16T06:39:25.000Z,94595.00
2023-05-16T06:40:25.037Z,94597.00
2023-05-16T06:41:25.102Z,94593.00
2023-05-16T06:42:25.224Z,94595.00
2023-05-16T06:43:25.229Z,94593.00
2023-05-16T06:44:25.299Z,94595.00
2023-05-16T06:45:25.754Z,94593.00
2023-05-16T06:46:25.484Z,94593.00
2023-05-16T06:47:25.511Z,94595.00
2023-05-16T06:48:25.610Z,94587.00
2023-05-16T06:49:25.600Z,94587.00
2023-05-16T06:50:25.669Z,94591.00
2023-05-16T06:51:25.689Z,94591.00
2023-05-16T06:52:25.785Z,94593.00
2023-05-16T06:53:25.874Z,94595.00
2023-05-16T06:54:25.902Z,94595.00
2023-05-16T06:55:26.069Z,94593.00
2023-05-16T06:56:25.963Z,94591.00
2023-05-16T06:57:26.237Z,94589.00
2023-05-16T06:58:26.052Z,94587.00
2023-05-16T06:59:28.070Z,94587.00
2023-05-16T07:00:26.566Z,94587.00
2023-05-16T07:01:26.266Z,94584.00
2023-05-16T07:02:26.361Z,94584.00
2023-05-16T07:03:26.511Z,94582.00
2023-05-16T07:04:26.262Z,94584.00
2023-05-16T07:05:26.816Z,94582.00
2023-05-16T07:06:26.380Z,94580.00
2023-05-16T07:07:26.587Z,94580.00
2023-05-16T07:08:26.564Z,94582.00
2023-05-16T07:09:26.562Z,94582.00
2023-05-16T07:10:27.095Z,94582.00
2023-05-16T07:11:26.614Z,94584.00
2023-05-16T07:12:26.725Z,94584.00
2023-05-16T07:13:26.794Z,94584.00
2023-05-16T07:14:26.817Z,94585.00
2023-05-16T07:15:27.314Z,94585.00
2023-05-16T07:16:26.993Z,94585.00
2023-05-16T07:17:27.021Z,94585.00
2023-05-16T07:18:27.008Z,94585.00
2023-05-16T07:19:27.236Z,94587.00
2023-05-16T07:20:27.137Z,94587.00
2023-05-16T07:21:27.237Z,94587.00
2023-05-16T07:22:27.168Z,94587.00
2023-05-16T07:23:27.244Z,94587.00
2023-05-16T07:24:27.270Z,94587.00
2023-05-16T07:25:27.793Z,94593.00
2023-05-16T07:26:27.405Z,94593.00
2023-05-16T07:27:27.756Z,94591.00
2023-05-16T07:28:27.518Z,94593.00
2023-05-16T07:29:27.556Z,94591.00
2023-05-16T07:30:28.096Z,94595.00
2023-05-16T07:31:27.662Z,94599.00
2023-05-16T07:32:27.690Z,94599.00
2023-05-16T07:33:27.704Z,94601.00
2023-05-16T07:34:27.731Z,94605.00
2023-05-16T07:35:28.218Z,94609.00
2023-05-16T07:36:27.806Z,94605.00
2023-05-16T07:37:28.131Z,94609.00
2023-05-16T07:38:27.815Z,94607.00
2023-05-16T07:39:27.831Z,94607.00
2023-05-16T07:40:27.866Z,94605.00
2023-05-16T07:41:27.837Z,94607.00
2023-05-16T07:42:27.861Z,94605.00
2023-05-16T07:43:28.436Z,94603.00
2023-05-16T07:44:28.088Z,94603.00
2023-05-16T07:45:28.296Z,94599.00
2023-05-16T07:46:28.117Z,94599.00
2023-05-16T07:47:28.125Z,94601.00
2023-05-16T07:48:28.134Z,94599.00
2023-05-16T07:49:28.140Z,94597.00
2023-05-16T07:50:28.181Z,94595.00
2023-05-16T07:51:28.148Z,94595.00
2023-05-16T07:52:28.235Z,94595.00
2023-05-16T07:53:28.214Z,94591.00
2023-05-16T07:54:28.243Z,94597.00
2023-05-16T07:55:28.443Z,94601.00
2023-05-16T07:56:28.284Z,94603.00
2023-05-16T07:57:28.293Z,94601.00
2023-05-16T07:58:28.381Z,94603.00
2023-05-16T07:59:28.452Z,94599.00
2023-05-16T08:00:28.552Z,94603.00
2023-05-16T08:01:28.575Z,94603.00
2023-05-16T08:02:28.511Z,94601.00
2023-05-16T08:03:28.631Z,94603.00
2023-05-16T08:04:28.655Z,94601.00
2023-05-16T08:05:28.810Z,94601.00
2023-05-16T08:06:28.560Z,94599.00
2023-05-16T08:07:28.601Z,94599.00
2023-05-16T08:08:28.639Z,94601.00
2023-05-16T08:09:28.688Z,94599.00
2023-05-16T08:10:28.719Z,94603.00
2023-05-16T08:11:28.690Z,94599.00
2023-05-16T08:12:28.726Z,94601.00
2023-05-16T08:13:28.779Z,94597.00
2023-05-16T08:14:28.718Z,94597.00
2023-05-16T08:15:29.157Z,94595.00
2023-05-16T08:16:28.771Z,94595.00
2023-05-16T08:17:28.788Z,94595.00
2023-05-16T08:18:28.738Z,94595.00
2023-05-16T08:19:28.940Z,94593.00
2023-05-16T08:20:29.246Z,94595.00
2023-05-16T08:21:29.016Z,94595.00
2023-05-16T08:22:28.907Z,94595.00
2023-05-16T08:23:28.955Z,94595.00
2023-05-16T08:24:28.993Z,94597.00
2023-05-16T08:25:29.259Z,94595.00
2023-05-16T08:26:29.075Z,94595.00
2023-05-16T08:27:29.176Z,94595.00
2023-05-16T08:28:29.213Z,94597.00
2023-05-16T08:29:29.215Z,94593.00
2023-05-16T08:30:29.283Z,94595.00
2023-05-16T08:31:29.362Z,94593.00
2023-05-16T08:32:29.359Z,94595.00
2023-05-16T08:33:29.369Z,94591.00
2023-05-16T08:34:29.560Z,94589.00
2023-05-16T08:35:29.543Z,94585.00
2023-05-16T08:36:29.621Z,94584.00
2023-05-16T08:37:29.520Z,94587.00
2023-05-16T08:38:29.583Z,94585.00
2023-05-16T08:39:29.559Z,94587.00
2023-05-16T08:40:29.582Z,94587.00
2023-05-16T08:41:30.085Z,94578.00
2023-05-16T08:42:29.667Z,94578.00
2023-05-16T08:43:29.759Z,94576.00
2023-05-16T08:44:29.812Z,94574.00
2023-05-16T08:45:30.053Z,94574.00
2023-05-16T08:46:29.921Z,94576.00
2023-05-16T08:47:30.017Z,94580.00
2023-05-16T08:48:29.962Z,94578.00
2023-05-16T08:49:30.095Z,94578.00
2023-05-16T08:50:30.033Z,94576.00
2023-05-16T08:51:30.150Z,94572.00
2023-05-16T08:52:30.189Z,94572.00
2023-05-16T08:53:30.178Z,94570.00
2023-05-16T08:54:30.286Z,94568.00
2023-05-16T08:55:30.420Z,94566.00
2023-05-16T08:56:30.604Z,94560.00
2023-05-16T08:57:30.373Z,94562.00
2023-05-16T08:58:30.383Z,94560.00
2023-05-16T08:59:30.437Z,94558.00
2023-05-16T09:00:30.523Z,94554.00
2023-05-16T09:01:30.699Z,94554.00
2023-05-16T09:02:30.501Z,94546.00
2023-05-16T09:03:30.515Z,94546.00
2023-05-16T09:04:30.561Z,94542.00
2023-05-16T09:05:30.519Z,94544.00
2023-05-16T09:06:30.648Z,94544.00
2023-05-16T09:07:30.520Z,94540.00
2023-05-16T09:08:30.620Z,94544.00
2023-05-16T09:09:31.508Z,94546.00
2023-05-16T09:10:30.673Z,94548.00
2023-05-16T09:11:30.714Z,94546.00
2023-05-16T09:12:30.730Z,94550.00
2023-05-16T09:13:30.747Z,94554.00
2023-05-16T09:14:30.862Z,94556.00
2023-05-16T09:15:30.766Z,94556.00
2023-05-16T09:16:30.823Z,94556.00
2023-05-16T09:17:39.002Z,94558.00
2023-05-16T09:18:31.846Z,94560.00
2023-05-16T09:19:30.911Z,94560.00
2023-05-16T09:20:30.761Z,94560.00
2023-05-16T09:21:31.252Z,94560.00
2023-05-16T09:22:30.742Z,94560.00
2023-05-16T09:23:30.702Z,94562.00
2023-05-16T09:24:30.983Z,94564.00
2023-05-16T09:25:31.764Z,94560.00
2023-05-16T09:26:31.606Z,94562.00
2023-05-16T09:27:30.724Z,94560.00
2023-05-16T09:28:30.792Z,94564.00
2023-05-16T09:29:30.818Z,94560.00
2023-05-16T09:30:31.232Z,94560.00
2023-05-16T09:31:31.312Z,94564.00
2023-05-16T09:32:30.961Z,94564.00
2023-05-16T09:33:30.960Z,94564.00
2023-05-16T09:34:30.999Z,94566.00
2023-05-16T09:35:44.030Z,94564.00
2023-05-16T09:36:32.095Z,94568.00
2023-05-16T09:37:31.069Z,94570.00
2023-05-16T09:38:31.072Z,94570.00
2023-05-16T09:39:31.047Z,94570.00
2023-05-16T09:40:31.025Z,94572.00
2023-05-16T09:41:31.147Z,94574.00
2023-05-16T09:42:31.026Z,94570.00
2023-05-16T09:43:31.080Z,94572.00
2023-05-16T09:44:30.967Z,94574.00
2023-05-16T09:45:31.036Z,94572.00
2023-05-16T09:46:31.059Z,94570.00
2023-05-16T09:47:31.032Z,94568.00
2023-05-16T09:48:30.970Z,94568.00
2023-05-16T09:49:30.990Z,94568.00
2023-05-16T09:50:30.940Z,94570.00
2023-05-16T09:51:30.950Z,94568.00
2023-05-16T09:52:30.952Z,94566.00
2023-05-16T09:53:31.007Z,94566.00
2023-05-16T09:54:30.996Z,94566.00
2023-05-16T09:55:31.029Z,94564.00
2023-05-16T09:56:31.091Z,94562.00
2023-05-16T09:57:31.055Z,94562.00
2023-05-16T09:58:31.114Z,94562.00
2023-05-16T09:59:31.102Z,94560.00
2023-05-16T10:00:31.186Z,94562.00
2023-05-16T10:01:31.154Z,94564.00
2023-05-16T10:02:31.287Z,94566.00
2023-05-16T10:03:31.256Z,94564.00
2023-05-16T10:04:31.493Z,94564.00
2023-05-16T10:05:31.310Z,94566.00
2023-05-16T10:06:31.312Z,94566.00
2023-05-16T10:07:31.376Z,94566.00
2023-05-16T10:08:31.366Z,94570.00
2023-05-16T10:09:31.448Z,94564.00
2023-05-16T10:10:31.460Z,94570.00
2023-05-16T10:11:31.497Z,94572.00
2023-05-16T10:12:31.529Z,94572.00
2023-05-16T10:13:31.540Z,94574.00
2023-05-16T10:14:31.567Z,94574.00
2023-05-16T10:15:31.748Z,94574.00
2023-05-16T10:16:31.727Z,94576.00
2023-05-16T10:17:31.721Z,94576.00
2023-05-16T10:18:31.898Z,94574.00
2023-05-16T10:19:31.789Z,94576.00
2023-05-16T10:20:31.856Z,94578.00
2023-05-16T10:21:31.872Z,94578.00
2023-05-16T10:22:32.144Z,94580.00
2023-05-16T10:23:31.955Z,94578.00
2023-05-16T10:24:32.027Z,94582.00
2023-05-16T10:25:32.638Z,94576.00
2023-05-16T10:26:32.116Z,94580.00
2023-05-16T10:27:32.230Z,94578.00
2023-05-16T10:28:32.192Z,94580.00
2023-05-16T10:29:39.950Z,94582.00
2023-05-16T10:30:33.284Z,94578.00
2023-05-16T10:31:32.734Z,94578.00
2023-05-16T10:32:32.223Z,94580.00
2023-05-16T10:33:32.178Z,94578.00
2023-05-16T10:34:32.228Z,94578.00
2023-05-16T10:35:32.178Z,94580.00
2023-05-16T10:36:32.179Z,94582.00
2023-05-16T10:37:32.811Z,94582.00
2023-05-16T10:38:32.141Z,94584.00
2023-05-16T10:39:32.206Z,94584.00
2023-05-16T10:40:32.173Z,94587.00
2023-05-16T10:41:32.227Z,94587.00
2023-05-16T10:42:32.230Z,94585.00
2023-05-16T10:43:32.308Z,94589.00
2023-05-16T10:44:32.261Z,94591.00
2023-05-16T10:45:32.538Z,94591.00
2023-05-16T10:46:32.710Z,94589.00
2023-05-16T10:47:32.314Z,94591.00
2023-05-16T10:48:32.457Z,94589.00
2023-05-16T10:49:32.426Z,94589.00
2023-05-16T10:50:32.505Z,94587.00
2023-05-16T10:51:33.465Z,94584.00
2023-05-16T10:52:32.527Z,94587.00
2023-05-16T10:53:32.505Z,94587.00
2023-05-16T10:54:34.099Z,94587.00
2023-05-16T10:55:32.541Z,94585.00
2023-05-16T10:56:32.584Z,94585.00
2023-05-16T10:57:33.158Z,94584.00
2023-05-16T10:58:32.746Z,94584.00
2023-05-16T10:59:32.785Z,94585.00
2023-05-16T11:00:32.868Z,94587.00
2023-05-16T11:01:32.880Z,94587.00
2023-05-16T11:02:33.077Z,94591.00
2023-05-16T11:03:33.059Z,94591.00
2023-05-16T11:04:33.028Z,94589.00
2023-05-16T11:05:33.092Z,94587.00
2023-05-16T11:06:33.148Z,94589.00
2023-05-16T11:07:33.221Z,94589.00
2023-05-16T11:08:33.448Z,94593.00
2023-05-16T11:09:33.334Z,94593.00
2023-05-16T11:10:33.381Z,94595.00
2023-05-16T11:11:33.435Z,94595.00
2023-05-16T11:12:33.511Z,94591.00
2023-05-16T11:13:33.596Z,94591.00
2023-05-16T11:14:33.622Z,94589.00
2023-05-16T11:15:33.679Z,94589.00
2023-05-16T11:16:33.732Z,94589.00
2023-05-16T11:17:34.645Z,94591.00
2023-05-16T11:18:33.960Z,94587.00
2023-05-16T11:19:33.827Z,94585.00
2023-05-16T11:20:33.939Z,94587.00
2023-05-16T11:21:34.167Z,94585.00
2023-05-16T11:22:34.032Z,94580.00
2023-05-16T11:23:33.894Z,94578.00
2023-05-16T11:24:33.884Z,94578.00
2023-05-16T11:25:33.871Z,94576.00
2023-05-16T11:26:33.876Z,94578.00
2023-05-16T11:27:34.173Z,94576.00
2023-05-16T11:28:33.864Z,94576.00
2023-05-16T11:29:33.870Z,94574.00
2023-05-16T11:30:33.876Z,94574.00
2023-05-16T11:31:33.934Z,94572.00
2023-05-16T11:32:34.229Z,94570.00
2023-05-16T11:33:33.909Z,94568.00
2023-05-16T11:34:33.923Z,94572.00
2023-05-16T11:35:33.869Z,94570.00
2023-05-16T11:36:33.863Z,94568.00
2023-05-16T11:37:34.189Z,94568.00
2023-05-16T11:38:33.901Z,94568.00
2023-05-16T11:39:33.969Z,94566.00
2023-05-16T11:40:33.890Z,94564.00
2023-05-16T11:41:33.900Z,94562.00
2023-05-16T11:42:34.640Z,94562.00
2023-05-16T11:43:33.880Z,94562.00
2023-05-16T11:44:33.885Z,94562.00
2023-05-16T11:45:33.908Z,94560.00